Time;durP1;ratioP1;P1;durP2;ratioP2;P2;SDS_P1;SDS_P2;PMS_P1;PMS_P2;Temp;Humidity;BMP_temperature;BMP_pressure;BME280_temperature;BME280_humidity;BME280_pressure;Samples;Min_cycle;Max_cycle;Signal;HPM_P1;HPM_P2
2021/12/18 00:00:05;;;;;;;3.47;3.28;;;4.50;99.90;;;;;;4990319;28;20231;-71
2021/12/18 00:02:32;;;;;;;3.90;3.50;;;4.50;99.90;;;;;;5016399;28;20228;-72
2021/12/18 00:04:59;;;;;;;3.20;3.00;;;4.50;99.90;;;;;;5012217;28;20864;-73
2021/12/18 00:07:26;;;;;;;3.45;3.25;;;4.50;99.90;;;;;;4989687;28;20690;-72
2021/12/18 00:09:54;;;;;;;3.60;3.40;;;4.50;99.90;;;;;;5030740;28;20227;-73
2021/12/18 00:12:21;;;;;;;3.33;3.13;;;4.60;99.90;;;;;;5013257;28;20230;-71
2021/12/18 00:14:49;;;;;;;2.97;2.78;;;4.60;99.90;;;;;;5016489;28;20227;-74
2021/12/18 00:17:18;;;;;;;2.67;2.58;;;4.60;99.90;;;;;;5011645;28;20583;-72
2021/12/18 00:19:45;;;;;;;2.88;2.70;;;4.60;99.90;;;;;;5013677;28;20231;-73
2021/12/18 00:22:12;;;;;;;2.95;2.75;;;4.60;99.90;;;;;;5018798;28;20242;-75
2021/12/18 00:24:40;;;;;;;3.03;2.83;;;4.60;99.90;;;;;;5029278;28;20258;-71
2021/12/18 00:27:07;;;;;;;2.83;2.63;;;4.60;99.90;;;;;;5020741;28;20590;-72
2021/12/18 00:29:35;;;;;;;3.13;2.92;;;4.60;99.90;;;;;;4992754;28;20223;-71
2021/12/18 00:32:02;;;;;;;3.15;2.97;;;4.60;99.90;;;;;;4998981;28;20227;-72
2021/12/18 00:34:30;;;;;;;2.97;2.78;;;4.60;99.90;;;;;;5024124;28;20231;-72
2021/12/18 00:36:57;;;;;;;3.00;2.83;;;4.70;99.90;;;;;;5018639;28;20272;-72
2021/12/18 00:39:24;;;;;;;2.70;2.58;;;4.80;99.90;;;;;;5025191;28;20227;-71
2021/12/18 00:42:08;;;;;;;2.60;2.50;;;4.80;99.90;;;;;;5021104;28;20227;-72
2021/12/18 00:44:35;;;;;;;2.65;2.55;;;4.90;99.90;;;;;;5006027;28;20309;-71
2021/12/18 00:47:02;;;;;;;2.30;2.15;;;4.90;99.90;;;;;;5003517;28;20259;-71
2021/12/18 00:49:30;;;;;;;2.90;2.70;;;4.80;99.90;;;;;;5030871;28;20234;-72
2021/12/18 00:51:57;;;;;;;3.17;2.92;;;4.80;99.90;;;;;;5022548;28;20224;-74
2021/12/18 00:54:24;;;;;;;2.72;2.63;;;4.70;99.90;;;;;;5025308;28;20223;-71
2021/12/18 00:56:51;;;;;;;3.35;3.15;;;4.70;99.90;;;;;;5022572;28;20227;-71
2021/12/18 00:59:18;;;;;;;3.50;3.20;;;4.60;99.90;;;;;;5020613;28;20710;-72
2021/12/18 01:01:47;;;;;;;3.60;3.40;;;4.50;99.90;;;;;;5019646;28;20215;-72
2021/12/18 01:04:14;;;;;;;3.05;2.85;;;4.40;99.90;;;;;;5017651;28;20721;-75
2021/12/18 01:06:42;;;;;;;3.20;3.00;;;4.40;99.90;;;;;;5018404;28;20621;-71
2021/12/18 01:09:09;;;;;;;3.35;3.15;;;4.30;99.90;;;;;;5023548;28;20639;-76
2021/12/18 01:11:42;;;;;;;3.30;3.10;;;4.30;99.90;;;;;;5022955;28;20230;-73
2021/12/18 01:14:44;;;;;;;2.95;2.75;;;4.30;99.90;;;;;;5019181;28;22619;-74
2021/12/18 01:22:48;;;;;;;3.47;3.28;;;4.30;99.90;;;;;;5027899;28;21794;-69
2021/12/18 01:25:15;;;;;;;3.22;2.92;;;4.20;99.90;;;;;;5026659;28;20272;-71
2021/12/18 01:27:43;;;;;;;3.30;3.08;;;4.20;99.90;;;;;;5026156;28;20230;-71
2021/12/18 01:30:13;;;;;;;3.40;3.15;;;4.20;99.90;;;;;;5028940;28;20310;-71
2021/12/18 01:32:41;;;;;;;2.80;2.60;;;4.20;99.90;;;;;;5025925;28;20263;-71
2021/12/18 01:35:09;;;;;;;3.25;3.05;;;4.30;99.90;;;;;;5032539;28;20223;-74
2021/12/18 01:37:36;;;;;;;3.40;3.20;;;4.30;99.90;;;;;;5027114;28;20230;-75
2021/12/18 01:40:06;;;;;;;3.08;2.95;;;4.40;99.90;;;;;;5031759;28;20226;-73
2021/12/18 01:43:30;;;;;;;3.30;3.10;;;4.40;99.90;;;;;;5029254;28;20281;-72
2021/12/18 01:46:00;;;;;;;3.60;3.40;;;4.40;99.90;;;;;;5021208;28;20226;-73
2021/12/18 01:51:19;;;;;;;3.15;2.95;;;4.30;99.90;;;;;;5028371;28;20320;-73
2021/12/18 01:53:47;;;;;;;3.20;3.00;;;4.30;99.90;;;;;;5033795;28;20250;-74
2021/12/18 01:56:16;;;;;;;3.13;2.92;;;4.30;99.90;;;;;;5003738;28;20224;-72
2021/12/18 01:58:45;;;;;;;3.50;3.30;;;4.30;99.90;;;;;;5029711;28;20586;-73
2021/12/18 02:01:12;;;;;;;2.67;2.58;;;4.30;99.90;;;;;;5026210;28;20250;-74
2021/12/18 02:03:40;;;;;;;3.10;2.90;;;4.30;99.90;;;;;;5031699;28;20737;-73
2021/12/18 02:06:07;;;;;;;2.92;2.75;;;4.30;99.90;;;;;;5028314;28;20228;-72
2021/12/18 02:08:36;;;;;;;3.30;3.05;;;4.30;99.90;;;;;;5032596;28;20511;-72
2021/12/18 02:11:13;;;;;;;3.00;2.80;;;4.30;99.90;;;;;;5027999;28;20224;-75
2021/12/18 02:19:51;;;;;;;3.25;3.05;;;4.40;99.90;;;;;;5058205;28;20632;-72
2021/12/18 02:22:21;;;;;;;3.22;2.97;;;4.40;99.90;;;;;;5027255;28;20238;-72
2021/12/18 02:24:48;;;;;;;3.10;2.90;;;4.40;99.90;;;;;;5050063;28;20498;-72
2021/12/18 02:27:15;;;;;;;3.40;3.20;;;4.30;99.90;;;;;;5047676;28;20571;-72
2021/12/18 02:29:43;;;;;;;3.20;3.00;;;4.30;99.90;;;;;;5053424;28;20230;-72
2021/12/18 02:32:12;;;;;;;3.10;2.90;;;4.30;99.90;;;;;;5050664;28;20237;-72
2021/12/18 02:34:40;;;;;;;2.80;2.60;;;4.30;99.90;;;;;;5050384;28;20270;-72
2021/12/18 02:37:11;;;;;;;3.38;3.17;;;4.30;99.90;;;;;;5048716;28;20227;-71
2021/12/18 02:39:57;;;;;;;2.75;2.65;;;4.30;99.90;;;;;;5054645;28;20716;-72
2021/12/18 02:42:25;;;;;;;2.95;2.85;;;4.30;99.90;;;;;;5051813;28;20218;-72
2021/12/18 02:44:52;;;;;;;3.05;2.95;;;4.30;99.90;;;;;;5047868;28;20226;-73
2021/12/18 02:47:19;;;;;;;2.97;2.78;;;4.30;99.90;;;;;;5049756;28;20230;-72
2021/12/18 02:49:49;;;;;;;2.53;2.40;;;4.30;99.90;;;;;;5050475;28;20223;-72
2021/12/18 02:52:17;;;;;;;2.67;2.58;;;4.30;99.90;;;;;;5022314;28;20225;-72
2021/12/18 02:54:46;;;;;;;3.20;3.00;;;4.30;99.90;;;;;;5052089;28;20253;-72
2021/12/18 02:57:14;;;;;;;2.90;2.70;;;4.30;99.90;;;;;;5049167;28;20226;-72
2021/12/18 02:59:46;;;;;;;2.95;2.75;;;4.30;99.90;;;;;;5046197;28;20230;-72
2021/12/18 03:02:13;;;;;;;2.92;2.83;;;4.30;99.90;;;;;;5056236;28;20718;-72
2021/12/18 03:04:43;;;;;;;3.13;2.92;;;4.30;99.90;;;;;;5056219;28;20226;-73
2021/12/18 03:07:13;;;;;;;2.75;2.60;;;4.30;99.90;;;;;;5053707;28;20302;-72
2021/12/18 03:23:44;;;;;;;3.55;3.35;;;4.30;99.90;;;;;;5047577;28;20759;-72
2021/12/18 03:26:13;;;;;;;3.35;3.15;;;4.30;99.90;;;;;;5050440;28;20222;-72
2021/12/18 03:28:41;;;;;;;3.22;3.03;;;4.30;99.90;;;;;;4987772;28;20242;-72
2021/12/18 03:31:09;;;;;;;3.42;3.22;;;4.30;99.90;;;;;;5040172;28;20340;-72
2021/12/18 03:33:36;;;;;;;3.50;3.20;;;4.30;99.90;;;;;;5033742;28;20665;-72
2021/12/18 03:36:04;;;;;;;3.30;3.10;;;4.30;99.90;;;;;;5033988;28;20227;-72
2021/12/18 03:38:31;;;;;;;3.33;3.03;;;4.40;99.90;;;;;;5039111;28;20452;-71
2021/12/18 03:40:58;;;;;;;3.58;3.38;;;4.40;99.90;;;;;;5034009;28;20622;-72
2021/12/18 03:43:26;;;;;;;3.35;3.15;;;4.40;99.90;;;;;;5034703;28;20632;-72
2021/12/18 03:45:54;;;;;;;3.05;2.95;;;4.40;99.90;;;;;;5040008;28;20226;-72
2021/12/18 03:48:21;;;;;;;3.20;3.00;;;4.30;99.90;;;;;;5041729;28;20230;-72
2021/12/18 03:50:49;;;;;;;2.90;2.70;;;4.30;99.90;;;;;;5043289;28;20253;-72
2021/12/18 03:53:17;;;;;;;2.78;2.67;;;4.30;99.90;;;;;;5037091;28;20211;-72
2021/12/18 03:55:44;;;;;;;2.67;2.58;;;4.30;99.90;;;;;;5042906;28;20223;-72
2021/12/18 03:58:11;;;;;;;2.75;2.55;;;4.30;99.90;;;;;;5037360;28;20426;-72
2021/12/18 04:00:38;;;;;;;2.50;2.40;;;4.20;99.90;;;;;;5044664;28;20265;-73
2021/12/18 04:03:06;;;;;;;2.90;2.78;;;4.30;99.90;;;;;;5040259;28;20633;-72
2021/12/18 04:05:33;;;;;;;2.88;2.78;;;4.30;99.90;;;;;;5036453;28;20223;-72
2021/12/18 04:08:08;;;;;;;2.65;2.55;;;4.40;99.90;;;;;;5036748;28;20766;-72
2021/12/18 04:10:37;;;;;;;3.00;2.90;;;4.30;99.90;;;;;;5035222;28;20571;-72
2021/12/18 04:13:04;;;;;;;2.95;2.85;;;4.30;99.90;;;;;;5036320;28;20314;-72
2021/12/18 04:15:32;;;;;;;3.00;2.85;;;4.30;99.90;;;;;;5031352;28;20235;-71
2021/12/18 04:17:59;;;;;;;2.45;2.35;;;4.30;99.90;;;;;;5039260;28;20218;-72
2021/12/18 04:20:27;;;;;;;3.00;2.90;;;4.30;99.90;;;;;;5036937;28;20277;-72
2021/12/18 04:22:55;;;;;;;3.03;2.92;;;4.30;99.90;;;;;;5035822;28;20227;-73
2021/12/18 04:25:22;;;;;;;2.83;2.72;;;4.40;99.90;;;;;;5038170;28;20220;-72
2021/12/18 04:27:49;;;;;;;2.85;2.75;;;4.40;99.90;;;;;;5040641;28;20294;-72
2021/12/18 04:30:16;;;;;;;2.78;2.67;;;4.60;99.90;;;;;;5042484;28;20230;-73
2021/12/18 04:32:44;;;;;;;2.40;2.30;;;4.70;99.90;;;;;;5041259;28;20223;-72
2021/12/18 04:35:11;;;;;;;2.30;2.20;;;4.60;99.90;;;;;;5042086;28;21155;-72
2021/12/18 04:37:39;;;;;;;2.60;2.50;;;4.70;99.90;;;;;;5014060;28;20253;-72
2021/12/18 04:40:07;;;;;;;2.90;2.80;;;4.70;99.90;;;;;;5040778;28;20608;-71
2021/12/18 04:42:35;;;;;;;2.90;2.70;;;4.60;99.90;;;;;;5040468;28;20219;-71
2021/12/18 04:45:02;;;;;;;2.88;2.78;;;4.50;99.90;;;;;;5041486;28;20219;-71
2021/12/18 04:47:29;;;;;;;2.78;2.67;;;4.40;99.90;;;;;;5052235;28;20296;-72
2021/12/18 04:49:56;;;;;;;2.50;2.40;;;4.40;99.90;;;;;;5044576;28;20227;-72
2021/12/18 04:52:23;;;;;;;2.50;2.40;;;4.40;99.90;;;;;;5038828;28;20219;-72
2021/12/18 04:54:52;;;;;;;2.60;2.50;;;4.40;99.90;;;;;;5045502;28;20593;-73
2021/12/18 04:57:19;;;;;;;2.60;2.50;;;4.40;99.90;;;;;;5038380;28;20214;-72
2021/12/18 04:59:46;;;;;;;2.50;2.40;;;4.40;99.90;;;;;;5044118;28;20689;-73
2021/12/18 05:02:17;;;;;;;2.50;2.30;;;4.40;99.90;;;;;;5033902;28;20705;-72
2021/12/18 05:04:44;;;;;;;2.55;2.42;;;4.40;99.90;;;;;;5040672;28;20230;-71
2021/12/18 05:07:11;;;;;;;2.75;2.65;;;4.30;99.90;;;;;;5040821;28;20223;-72
2021/12/18 05:09:39;;;;;;;2.65;2.55;;;4.30;99.90;;;;;;5038882;28;20219;-73
2021/12/18 05:12:09;;;;;;;2.50;2.40;;;4.30;99.90;;;;;;5041218;28;20222;-72
2021/12/18 05:14:36;;;;;;;2.40;2.30;;;4.30;99.90;;;;;;5038885;28;20250;-72
2021/12/18 05:17:04;;;;;;;2.58;2.47;;;4.20;99.90;;;;;;5043943;28;20712;-72
2021/12/18 05:19:31;;;;;;;2.40;2.30;;;4.20;99.90;;;;;;5037419;28;20230;-72
2021/12/18 05:21:58;;;;;;;2.40;2.30;;;4.20;99.90;;;;;;5038578;28;20657;-72
2021/12/18 05:24:25;;;;;;;2.78;2.67;;;4.20;99.90;;;;;;5039094;28;20238;-72
2021/12/18 05:26:52;;;;;;;2.92;2.72;;;4.20;99.90;;;;;;5040544;28;20226;-72
2021/12/18 05:29:20;;;;;;;9.18;5.93;;;4.30;99.90;;;;;;5038722;28;20234;-72
2021/12/18 05:31:48;;;;;;;8.80;5.93;;;4.30;99.90;;;;;;5035007;28;20222;-73
2021/12/18 05:34:21;;;;;;;9.85;7.20;;;4.40;99.90;;;;;;5033325;28;20226;-71
2021/12/18 05:37:14;;;;;;;9.55;6.72;;;4.40;99.90;;;;;;5037082;28;20230;-72
2021/12/18 05:39:41;;;;;;;7.93;6.25;;;4.40;99.90;;;;;;5193399;22;20733;-79
2021/12/18 05:42:09;;;;;;;9.40;6.40;;;4.30;99.90;;;;;;5019152;28;20227;-79
2021/12/18 05:44:37;;;;;;;6.72;5.75;;;4.30;99.90;;;;;;5022458;28;20216;-76
2021/12/18 05:47:05;;;;;;;6.63;5.88;;;4.20;99.90;;;;;;5027241;28;20215;-77
2021/12/18 05:49:33;;;;;;;4.72;4.32;;;4.20;99.90;;;;;;5027260;28;20614;-76
2021/12/18 05:52:00;;;;;;;4.38;3.97;;;4.20;99.90;;;;;;5031255;28;20573;-79
2021/12/18 05:54:27;;;;;;;4.25;3.90;;;4.20;99.90;;;;;;5036859;28;20237;-78
2021/12/18 05:56:54;;;;;;;3.92;3.60;;;4.20;99.90;;;;;;5034717;28;20226;-80
2021/12/18 05:59:22;;;;;;;3.95;3.65;;;4.20;99.90;;;;;;5034823;28;20322;-77
2021/12/18 06:01:50;;;;;;;3.88;3.58;;;4.20;99.90;;;;;;5027932;28;20244;-79
2021/12/18 06:04:17;;;;;;;2.80;2.60;;;4.20;99.90;;;;;;5032055;28;20227;-78
2021/12/18 06:06:44;;;;;;;3.50;3.30;;;4.20;99.90;;;;;;5034682;28;20307;-78
2021/12/18 06:09:11;;;;;;;2.83;2.63;;;4.30;99.90;;;;;;5032438;28;20231;-80
2021/12/18 06:11:40;;;;;;;3.25;3.05;;;4.30;99.90;;;;;;5029047;28;20224;-80
2021/12/18 06:14:08;;;;;;;3.30;3.10;;;4.30;99.90;;;;;;5027988;28;20751;-78
2021/12/18 06:16:35;;;;;;;2.88;2.72;;;4.30;99.90;;;;;;5025623;28;20262;-80
2021/12/18 06:19:04;;;;;;;2.75;2.65;;;4.30;99.90;;;;;;5022557;28;20231;-79
2021/12/18 06:21:31;;;;;;;2.92;2.78;;;4.30;99.90;;;;;;5031044;28;20227;-77
2021/12/18 06:23:58;;;;;;;3.08;2.90;;;4.30;99.90;;;;;;5038252;28;20235;-79
2021/12/18 06:26:27;;;;;;;3.00;2.80;;;4.30;99.90;;;;;;5040131;28;20226;-79
2021/12/18 06:28:55;;;;;;;2.88;2.78;;;4.30;99.90;;;;;;5036223;28;20548;-79
2021/12/18 06:31:22;;;;;;;2.75;2.65;;;4.30;99.90;;;;;;5029044;28;20223;-79
2021/12/18 06:33:49;;;;;;;2.33;2.22;;;4.30;99.90;;;;;;5030384;28;20233;-78
2021/12/18 06:36:18;;;;;;;2.70;2.53;;;4.30;99.90;;;;;;5024546;28;20693;-77
2021/12/18 06:38:45;;;;;;;2.60;2.50;;;4.20;99.90;;;;;;5028325;28;20736;-78
2021/12/18 06:41:12;;;;;;;2.88;2.78;;;4.20;99.90;;;;;;5023212;28;20227;-79
2021/12/18 06:43:39;;;;;;;2.55;2.45;;;4.20;99.90;;;;;;5021208;28;20215;-79
2021/12/18 06:46:07;;;;;;;2.47;2.38;;;4.20;99.90;;;;;;5026743;28;20258;-78
2021/12/18 06:48:34;;;;;;;2.30;2.20;;;4.20;99.90;;;;;;5024982;28;20314;-76
2021/12/18 06:51:02;;;;;;;2.60;2.50;;;4.20;99.90;;;;;;5031617;28;20223;-80
2021/12/18 06:53:30;;;;;;;2.70;2.60;;;4.30;99.90;;;;;;5032359;28;20234;-79
2021/12/18 06:55:58;;;;;;;2.78;2.55;;;4.30;99.90;;;;;;5028942;28;20227;-78
2021/12/18 06:58:25;;;;;;;3.00;2.80;;;4.40;99.90;;;;;;5031512;28;20697;-78
2021/12/18 07:00:53;;;;;;;2.90;2.80;;;4.40;99.90;;;;;;5037176;28;20235;-80
2021/12/18 07:03:20;;;;;;;3.08;2.88;;;4.50;99.90;;;;;;5041075;28;20215;-78
2021/12/18 07:05:48;;;;;;;3.40;3.20;;;4.40;99.90;;;;;;5036721;28;20243;-79
2021/12/18 07:08:15;;;;;;;3.10;2.90;;;4.30;99.90;;;;;;5035137;28;20299;-79
2021/12/18 07:10:44;;;;;;;3.15;2.95;;;4.20;99.90;;;;;;5033970;28;20243;-79
2021/12/18 07:13:11;;;;;;;3.25;3.05;;;4.10;99.90;;;;;;5046319;28;20617;-79
2021/12/18 07:15:39;;;;;;;3.10;2.90;;;4.10;99.90;;;;;;5043116;28;20602;-79
2021/12/18 07:18:06;;;;;;;3.17;2.97;;;4.00;99.90;;;;;;5033835;28;20697;-79
2021/12/18 07:20:33;;;;;;;3.50;3.30;;;4.00;99.90;;;;;;5030894;28;20237;-79
2021/12/18 07:23:00;;;;;;;3.63;3.42;;;4.10;99.90;;;;;;5033767;28;20278;-79
2021/12/18 07:25:27;;;;;;;3.25;3.05;;;4.10;99.90;;;;;;5039134;28;20234;-78
2021/12/18 07:27:57;;;;;;;3.13;2.92;;;4.10;99.90;;;;;;5038213;28;20645;-79
2021/12/18 07:30:24;;;;;;;2.97;2.83;;;4.20;99.90;;;;;;5036139;28;20238;-80
2021/12/18 07:32:51;;;;;;;3.08;2.88;;;4.20;99.90;;;;;;5040898;28;20668;-79
2021/12/18 07:35:19;;;;;;;2.65;2.55;;;4.20;99.90;;;;;;5036746;28;20609;-79
2021/12/18 07:37:46;;;;;;;3.00;2.80;;;4.20;99.90;;;;;;5038122;28;20226;-78
2021/12/18 07:40:14;;;;;;;2.88;2.78;;;4.30;99.90;;;;;;5041151;28;20231;-79
2021/12/18 07:42:42;;;;;;;2.90;2.70;;;4.30;99.90;;;;;;5035041;28;20235;-79
2021/12/18 07:45:13;;;;;;;3.50;3.20;;;4.40;99.90;;;;;;5038542;28;20218;-78
2021/12/18 07:47:40;;;;;;;3.17;2.88;;;4.40;99.90;;;;;;5037754;28;20220;-79
2021/12/18 07:50:12;;;;;;;3.42;3.13;;;4.40;99.90;;;;;;5035420;28;20233;-78
2021/12/18 07:52:39;;;;;;;3.72;3.40;;;4.40;99.90;;;;;;5033523;28;20227;-79
2021/12/18 07:55:07;;;;;;;3.95;3.63;;;4.50;99.90;;;;;;5032246;28;20355;-79
2021/12/18 07:57:34;;;;;;;3.50;3.20;;;4.50;99.90;;;;;;5025073;28;20224;-78
2021/12/18 08:00:01;;;;;;;3.33;3.13;;;4.50;99.90;;;;;;5024756;28;20228;-79
2021/12/18 08:02:29;;;;;;;3.50;3.20;;;4.50;99.90;;;;;;5025360;28;20227;-78
2021/12/18 08:04:56;;;;;;;3.30;3.10;;;4.50;99.90;;;;;;5027197;28;20633;-77
2021/12/18 08:07:23;;;;;;;2.80;2.60;;;4.50;99.90;;;;;;5037531;28;20250;-79
2021/12/18 08:09:50;;;;;;;2.60;2.40;;;4.50;99.90;;;;;;5023786;28;20235;-77
2021/12/18 08:12:17;;;;;;;2.85;2.70;;;4.60;99.90;;;;;;5028242;28;20227;-77
2021/12/18 08:14:45;;;;;;;2.85;2.75;;;4.70;99.90;;;;;;5032213;28;20219;-76
2021/12/18 08:17:12;;;;;;;2.80;2.70;;;4.80;99.90;;;;;;5028199;28;20246;-78
2021/12/18 08:19:41;;;;;;;3.22;3.03;;;5.60;99.90;;;;;;5034785;28;20219;-80
2021/12/18 08:22:08;;;;;;;4.30;3.97;;;6.70;99.90;;;;;;5034601;28;20255;-78
2021/12/18 08:24:35;;;;;;;4.60;4.20;;;7.70;99.90;;;;;;5029252;28;20234;-80
2021/12/18 08:27:02;;;;;;;4.80;4.40;;;8.30;99.90;;;;;;5031680;28;20255;-79
2021/12/18 08:29:29;;;;;;;5.15;4.70;;;8.60;99.90;;;;;;5028688;28;20223;-80
2021/12/18 08:31:56;;;;;;;7.68;5.50;;;8.70;99.90;;;;;;5030657;28;20219;-79
2021/12/18 08:34:23;;;;;;;5.95;5.32;;;9.00;99.90;;;;;;5035378;28;20215;-79
2021/12/18 08:36:52;;;;;;;6.03;5.43;;;8.70;99.90;;;;;;5036922;28;20223;-79
2021/12/18 08:39:20;;;;;;;6.15;5.63;;;8.40;99.90;;;;;;5030479;28;20281;-77
2021/12/18 08:41:47;;;;;;;7.30;5.57;;;8.30;99.90;;;;;;5028627;28;20223;-78
2021/12/18 08:44:15;;;;;;;6.10;4.90;;;8.10;99.90;;;;;;5033233;28;20288;-77
2021/12/18 08:46:42;;;;;;;4.78;4.38;;;8.00;99.90;;;;;;5030570;28;20293;-80
2021/12/18 08:49:09;;;;;;;4.68;4.28;;;8.10;99.90;;;;;;5026538;28;20231;-77
2021/12/18 08:51:37;;;;;;;5.32;4.82;;;8.60;99.90;;;;;;5026218;28;20293;-76
2021/12/18 08:54:06;;;;;;;5.18;4.78;;;9.40;99.90;;;;;;5026954;28;20723;-79
2021/12/18 08:56:33;;;;;;;4.70;4.30;;;10.50;99.90;;;;;;5027283;28;20235;-77
2021/12/18 08:59:01;;;;;;;4.72;4.35;;;11.40;99.90;;;;;;5031804;28;20219;-77
2021/12/18 09:01:28;;;;;;;4.82;4.32;;;12.20;99.90;;;;;;5030826;28;20228;-79
2021/12/18 09:03:56;;;;;;;6.53;5.78;;;13.00;99.90;;;;;;5031755;28;20231;-77
2021/12/18 09:06:23;;;;;;;6.57;5.97;;;13.90;99.90;;;;;;5032803;28;20226;-80
2021/12/18 09:08:52;;;;;;;6.07;4.78;;;14.60;99.90;;;;;;5034594;28;20760;-79
2021/12/18 09:11:20;;;;;;;6.78;6.07;;;15.40;99.90;;;;;;5038205;28;20219;-80
2021/12/18 09:13:48;;;;;;;4.97;4.50;;;16.70;99.90;;;;;;5042154;28;20223;-77
2021/12/18 09:16:15;;;;;;;5.53;4.32;;;18.20;97.40;;;;;;5039195;28;20222;-78
2021/12/18 09:18:42;;;;;;;4.10;3.75;;;19.50;92.60;;;;;;5034097;28;20239;-77
2021/12/18 09:21:09;;;;;;;3.80;3.50;;;20.40;89.50;;;;;;5040496;28;20697;-80
2021/12/18 09:23:36;;;;;;;5.70;3.92;;;21.20;85.50;;;;;;5040220;28;20242;-78
2021/12/18 09:26:04;;;;;;;5.38;4.88;;;21.90;78.80;;;;;;5044042;28;20219;-77
2021/12/18 09:28:32;;;;;;;7.22;5.55;;;22.60;77.90;;;;;;5038301;28;20651;-77
2021/12/18 09:31:00;;;;;;;6.05;4.70;;;23.10;73.80;;;;;;5041942;28;20223;-81
2021/12/18 09:33:27;;;;;;;6.07;4.45;;;23.40;72.20;;;;;;5035547;28;20228;-77
2021/12/18 09:35:54;;;;;;;5.03;4.50;;;23.70;71.20;;;;;;5030105;28;20223;-79
2021/12/18 09:38:21;;;;;;;5.07;4.57;;;23.70;69.80;;;;;;5032327;28;20254;-79
2021/12/18 09:40:48;;;;;;;5.45;4.15;;;23.70;69.40;;;;;;5034506;28;20701;-78
2021/12/18 09:43:15;;;;;;;5.82;4.20;;;23.80;67.40;;;;;;5030674;28;20215;-79
2021/12/18 09:45:46;;;;;;;5.30;4.65;;;23.60;68.10;;;;;;5038456;28;20225;-79
2021/12/18 09:48:13;;;;;;;5.78;4.88;;;23.50;65.90;;;;;;5032324;28;20228;-77
2021/12/18 09:50:42;;;;;;;6.88;4.68;;;23.50;67.80;;;;;;5021187;28;20220;-79
2021/12/18 09:53:10;;;;;;;6.03;4.70;;;23.20;67.80;;;;;;5013087;28;20227;-76
2021/12/18 09:55:37;;;;;;;5.68;4.60;;;22.60;69.50;;;;;;5009606;28;20232;-78
2021/12/18 09:58:04;;;;;;;8.05;6.40;;;22.50;71.60;;;;;;5017918;28;20729;-79
2021/12/18 10:00:31;;;;;;;5.57;5.03;;;21.80;70.30;;;;;;5018052;28;20238;-80
2021/12/18 10:02:59;;;;;;;6.10;5.10;;;20.10;74.40;;;;;;5027719;28;20227;-78
2021/12/18 10:05:29;;;;;;;7.55;4.85;;;18.80;77.50;;;;;;5013081;28;20718;-78
2021/12/18 10:08:10;;;;;;;10.43;4.82;;;17.70;82.50;;;;;;5024055;28;20227;-78
2021/12/18 10:10:38;;;;;;;4.75;4.25;;;16.50;84.00;;;;;;5012326;28;20714;-79
2021/12/18 10:13:07;;;;;;;5.25;4.25;;;16.00;88.00;;;;;;5016840;28;20220;-79
2021/12/18 10:15:35;;;;;;;4.95;4.45;;;15.40;89.10;;;;;;5011177;28;20224;-79
2021/12/18 10:18:08;;;;;;;5.10;4.57;;;14.90;90.90;;;;;;5013397;28;20278;-79
2021/12/18 10:20:36;;;;;;;5.72;5.22;;;14.00;90.90;;;;;;5007889;28;20599;-79
2021/12/18 10:23:05;;;;;;;6.68;5.32;;;13.50;93.60;;;;;;5014403;28;20633;-79
2021/12/18 10:25:38;;;;;;;6.20;4.85;;;13.90;94.50;;;;;;5015861;28;20311;-77
2021/12/18 10:28:11;;;;;;;6.40;5.80;;;14.30;94.00;;;;;;5015457;28;20247;-79
2021/12/18 10:30:45;;;;;;;6.78;5.85;;;14.60;94.30;;;;;;5017325;28;20227;-78
2021/12/18 10:33:14;;;;;;;7.15;6.18;;;14.60;94.50;;;;;;5004845;28;20233;-79
2021/12/18 10:35:44;;;;;;;7.68;6.45;;;14.50;94.70;;;;;;5007601;28;20228;-78
2021/12/18 10:38:40;;;;;;;9.90;8.90;;;14.40;94.70;;;;;;5007560;28;20232;-79
2021/12/18 10:41:24;;;;;;;10.20;8.73;;;14.30;94.70;;;;;;5028364;28;20253;-79
2021/12/18 10:43:57;;;;;;;7.88;7.07;;;14.20;95.40;;;;;;5027524;28;20708;-79
2021/12/18 10:46:24;;;;;;;8.07;7.28;;;14.00;94.80;;;;;;5027494;28;20226;-78
2021/12/18 10:48:59;;;;;;;6.95;6.18;;;13.20;94.70;;;;;;5021398;28;20250;-78
2021/12/18 10:51:27;;;;;;;7.15;6.45;;;12.60;96.50;;;;;;5029995;28;20231;-79
2021/12/18 10:54:00;;;;;;;7.60;6.80;;;12.40;97.10;;;;;;5026006;28;20356;-79
2021/12/18 10:56:37;;;;;;;7.10;6.40;;;12.50;97.20;;;;;;5028112;28;20231;-79
2021/12/18 10:59:07;;;;;;;6.90;6.10;;;12.50;97.20;;;;;;5028469;28;20222;-79
2021/12/18 11:01:37;;;;;;;7.05;6.35;;;12.80;97.10;;;;;;5029090;28;20251;-79
2021/12/18 11:04:06;;;;;;;6.80;6.20;;;13.20;96.30;;;;;;5031828;28;20231;-78
2021/12/18 11:06:35;;;;;;;6.70;5.28;;;13.30;95.80;;;;;;5027283;28;20318;-78
2021/12/18 11:09:08;;;;;;;4.65;4.25;;;13.10;95.70;;;;;;5024147;28;20216;-78
2021/12/18 11:14:26;;;;;;;6.50;5.35;;;13.50;95.30;;;;;;5028974;28;20268;-78
2021/12/18 11:16:56;;;;;;;6.35;5.70;;;13.60;95.50;;;;;;5029770;28;20235;-79
2021/12/18 11:19:26;;;;;;;5.72;5.05;;;13.80;95.00;;;;;;5027653;28;20652;-81
2021/12/18 11:21:55;;;;;;;6.45;5.43;;;14.00;95.00;;;;;;5028698;28;20215;-79
2021/12/18 11:24:28;;;;;;;6.05;5.07;;;13.90;94.70;;;;;;5030292;28;20230;-79
2021/12/18 11:26:59;;;;;;;7.07;5.55;;;13.90;95.00;;;;;;5036502;28;20227;-76
2021/12/18 11:29:31;;;;;;;5.60;5.10;;;13.80;95.00;;;;;;5029741;28;20235;-79
2021/12/18 11:31:59;;;;;;;7.63;5.60;;;14.10;95.40;;;;;;5030136;28;20215;-78
2021/12/18 11:34:28;;;;;;;6.03;5.43;;;14.20;95.10;;;;;;5033562;28;20238;-79
2021/12/18 11:36:55;;;;;;;7.57;6.75;;;14.30;95.20;;;;;;5033309;28;20297;-79
2021/12/18 11:39:29;;;;;;;7.10;6.40;;;14.30;95.20;;;;;;5018532;28;20225;-79
2021/12/18 11:41:56;;;;;;;9.13;6.40;;;14.30;95.30;;;;;;5030707;28;20290;-79
2021/12/18 11:44:36;;;;;;;7.00;6.35;;;14.10;95.40;;;;;;5031598;28;20223;-79
2021/12/18 11:47:26;;;;;;;7.00;6.30;;;13.90;95.60;;;;;;5028043;28;20223;-78
2021/12/18 11:49:56;;;;;;;7.20;6.50;;;13.60;96.00;;;;;;5025388;28;20270;-79
2021/12/18 11:52:23;;;;;;;7.97;7.25;;;13.30;96.90;;;;;;5006651;28;20607;-78
2021/12/18 11:54:53;;;;;;;6.88;5.95;;;13.30;97.00;;;;;;5007376;28;20282;-79
2021/12/18 11:57:42;;;;;;;6.95;5.70;;;13.60;97.20;;;;;;5034076;28;20219;-78
2021/12/18 12:00:30;;;;;;;6.82;6.20;;;13.80;96.90;;;;;;5007273;28;20347;-80
2021/12/18 12:03:00;;;;;;;6.10;5.50;;;14.00;96.80;;;;;;5019745;23;20280;-75
2021/12/18 12:05:36;;;;;;;7.40;6.22;;;13.90;95.20;;;;;;5039456;28;20227;-77
2021/12/18 12:08:26;;;;;;;6.85;5.97;;;13.80;95.70;;;;;;5038584;28;20713;-76
2021/12/18 12:11:18;;;;;;;7.57;6.38;;;13.80;96.00;;;;;;5038988;28;20216;-74
2021/12/18 12:13:57;;;;;;;7.18;5.97;;;13.80;96.10;;;;;;5000850;28;20310;-80
2021/12/18 12:17:04;;;;;;;6.65;6.05;;;14.00;95.80;;;;;;5002847;28;20211;-76
2021/12/18 12:19:59;;;;;;;6.15;5.57;;;14.00;95.80;;;;;;5015153;28;20234;-75
2021/12/18 12:22:42;;;;;;;6.38;5.75;;;14.00;95.90;;;;;;5019392;28;20767;-78
2021/12/18 12:25:11;;;;;;;7.70;5.88;;;14.00;95.80;;;;;;5016916;28;20453;-78
2021/12/18 12:27:40;;;;;;;8.82;6.05;;;14.00;95.30;;;;;;5015514;28;20595;-79
2021/12/18 12:30:09;;;;;;;6.32;5.72;;;13.90;95.70;;;;;;5015323;28;20570;-79
2021/12/18 12:32:37;;;;;;;5.93;5.43;;;13.80;96.00;;;;;;5015067;28;20227;-74
2021/12/18 12:35:07;;;;;;;7.07;5.63;;;13.60;96.10;;;;;;5014931;28;20308;-75
2021/12/18 12:37:39;;;;;;;6.28;5.68;;;13.60;96.30;;;;;;5000448;28;20252;-78
2021/12/18 12:40:10;;;;;;;6.40;5.80;;;13.60;96.20;;;;;;5001018;28;20220;-79
2021/12/18 12:42:38;;;;;;;5.75;5.25;;;13.80;96.00;;;;;;5010873;28;20232;-78
2021/12/18 12:45:11;;;;;;;6.55;5.95;;;13.80;96.00;;;;;;5020715;28;20218;-74
2021/12/18 12:47:39;;;;;;;6.13;5.55;;;13.90;95.60;;;;;;5027276;28;20296;-75
2021/12/18 12:50:29;;;;;;;5.72;5.10;;;13.90;96.00;;;;;;5019738;28;20215;-77
2021/12/18 12:52:59;;;;;;;5.40;4.90;;;13.90;95.80;;;;;;5018433;28;20283;-82
2021/12/18 12:55:28;;;;;;;6.72;5.30;;;13.90;96.10;;;;;;5015178;28;20234;-79
2021/12/18 12:57:57;;;;;;;5.53;5.00;;;13.80;95.90;;;;;;5010313;28;20275;-75
2021/12/18 13:00:52;;;;;;;5.97;5.38;;;13.90;95.80;;;;;;5010983;28;20227;-78
2021/12/18 13:03:29;;;;;;;5.95;5.22;;;13.80;94.60;;;;;;5005862;28;20319;-78
2021/12/18 13:06:05;;;;;;;6.03;5.47;;;13.80;95.30;;;;;;5014735;28;20211;-79
2021/12/18 13:08:38;;;;;;;6.45;5.43;;;13.50;95.40;;;;;;4972427;28;20474;-79
2021/12/18 13:11:05;;;;;;;7.50;5.90;;;13.40;96.00;;;;;;5024183;28;20216;-79
2021/12/18 13:13:35;;;;;;;5.78;5.28;;;13.40;96.30;;;;;;5007557;28;20225;-77
2021/12/18 13:16:06;;;;;;;7.82;5.90;;;13.30;96.10;;;;;;4999750;28;20286;-82
2021/12/18 13:18:36;;;;;;;7.05;5.68;;;13.30;96.30;;;;;;4997612;28;20224;-81
2021/12/18 13:21:06;;;;;;;6.57;5.97;;;13.20;96.20;;;;;;5007116;28;20308;-80
2021/12/18 13:23:54;;;;;;;5.75;5.00;;;13.20;96.50;;;;;;5006483;28;20228;-77
2021/12/18 13:26:27;;;;;;;6.57;5.97;;;13.20;96.30;;;;;;4998190;28;20218;-77
2021/12/18 13:29:00;;;;;;;5.80;4.95;;;13.10;96.70;;;;;;4973114;28;20248;-77
2021/12/18 13:31:31;;;;;;;5.72;5.13;;;13.20;96.70;;;;;;5012603;28;20227;-79
2021/12/18 13:34:01;;;;;;;6.50;6.00;;;13.10;97.00;;;;;;5019957;28;20227;-78
2021/12/18 13:36:44;;;;;;;5.72;5.22;;;12.90;97.40;;;;;;5016066;28;20225;-77